sensor_id;sensor_type;location;lat;lon;timestamp;P1;durP1;ratioP1;P2;durP2;ratioP2
72464;SDS011;60471;52.150;4.508;2023-03-26T00:01:15;17.63;;;3.13;;
72464;SDS011;60471;52.150;4.508;2023-03-26T00:03:46;22.33;;;4.10;;
72464;SDS011;60471;52.150;4.508;2023-03-26T00:06:19;19.50;;;3.50;;
72464;SDS011;60471;52.150;4.508;2023-03-26T00:08:54;20.92;;;4.18;;
72464;SDS011;60471;52.150;4.508;2023-03-26T00:11:22;15.68;;;3.13;;
72464;SDS011;60471;52.150;4.508;2023-03-26T00:13:52;18.30;;;4.15;;
72464;SDS011;60471;52.150;4.508;2023-03-26T00:16:21;19.42;;;3.25;;
72464;SDS011;60471;52.150;4.508;2023-03-26T00:18:50;22.88;;;4.28;;
72464;SDS011;60471;52.150;4.508;2023-03-26T00:21:19;22.88;;;3.65;;
72464;SDS011;60471;52.150;4.508;2023-03-26T00:23:56;21.33;;;3.40;;
72464;SDS011;60471;52.150;4.508;2023-03-26T00:26:26;26.80;;;4.10;;
72464;SDS011;60471;52.150;4.508;2023-03-26T00:28:54;18.15;;;3.20;;
72464;SDS011;60471;52.150;4.508;2023-03-26T00:31:20;17.77;;;3.50;;
72464;SDS011;60471;52.150;4.508;2023-03-26T00:33:46;21.42;;;3.33;;
72464;SDS011;60471;52.150;4.508;2023-03-26T00:36:13;17.15;;;2.47;;
72464;SDS011;60471;52.150;4.508;2023-03-26T00:38:42;18.50;;;3.28;;
72464;SDS011;60471;52.150;4.508;2023-03-26T00:41:11;19.55;;;2.85;;
72464;SDS011;60471;52.150;4.508;2023-03-26T00:43:43;22.02;;;3.20;;
72464;SDS011;60471;52.150;4.508;2023-03-26T00:46:14;16.40;;;2.67;;
72464;SDS011;60471;52.150;4.508;2023-03-26T00:48:43;16.80;;;2.67;;
72464;SDS011;60471;52.150;4.508;2023-03-26T00:51:11;21.10;;;3.00;;
72464;SDS011;60471;52.150;4.508;2023-03-26T00:53:40;14.00;;;2.80;;
72464;SDS011;60471;52.150;4.508;2023-03-26T00:56:10;17.52;;;2.97;;
72464;SDS011;60471;52.150;4.508;2023-03-26T00:58:37;14.60;;;2.63;;
72464;SDS011;60471;52.150;4.508;2023-03-26T01:01:05;17.98;;;2.67;;
72464;SDS011;60471;52.150;4.508;2023-03-26T01:03:36;14.68;;;2.30;;
72464;SDS011;60471;52.150;4.508;2023-03-26T01:06:04;13.93;;;2.30;;
72464;SDS011;60471;52.150;4.508;2023-03-26T01:08:38;20.63;;;2.78;;
72464;SDS011;60471;52.150;4.508;2023-03-26T01:13:45;18.90;;;2.85;;
72464;SDS011;60471;52.150;4.508;2023-03-26T01:16:25;17.95;;;2.90;;
72464;SDS011;60471;52.150;4.508;2023-03-26T01:18:56;11.10;;;3.13;;
72464;SDS011;60471;52.150;4.508;2023-03-26T01:21:24;18.45;;;3.40;;
72464;SDS011;60471;52.150;4.508;2023-03-26T01:29:43;19.27;;;3.45;;
72464;SDS011;60471;52.150;4.508;2023-03-26T01:38:21;28.08;;;4.68;;
72464;SDS011;60471;52.150;4.508;2023-03-26T01:41:25;16.33;;;3.80;;
72464;SDS011;60471;52.150;4.508;2023-03-26T01:44:05;21.80;;;4.22;;
72464;SDS011;60471;52.150;4.508;2023-03-26T01:46:42;27.50;;;5.22;;
72464;SDS011;60471;52.150;4.508;2023-03-26T01:49:10;26.67;;;4.90;;
72464;SDS011;60471;52.150;4.508;2023-03-26T01:51:38;27.10;;;5.40;;
72464;SDS011;60471;52.150;4.508;2023-03-26T01:54:07;33.45;;;5.65;;
72464;SDS011;60471;52.150;4.508;2023-03-26T02:02:31;44.67;;;6.93;;
72464;SDS011;60471;52.150;4.508;2023-03-26T02:05:30;48.03;;;7.88;;
72464;SDS011;60471;52.150;4.508;2023-03-26T02:08:11;43.97;;;7.80;;
72464;SDS011;60471;52.150;4.508;2023-03-26T02:10:56;42.67;;;7.40;;
72464;SDS011;60471;52.150;4.508;2023-03-26T02:13:26;45.30;;;7.35;;
72464;SDS011;60471;52.150;4.508;2023-03-26T02:15:54;62.20;;;8.02;;
72464;SDS011;60471;52.150;4.508;2023-03-26T02:18:29;48.28;;;7.82;;
72464;SDS011;60471;52.150;4.508;2023-03-26T02:21:02;47.88;;;7.50;;
72464;SDS011;60471;52.150;4.508;2023-03-26T02:23:45;61.65;;;9.68;;
72464;SDS011;60471;52.150;4.508;2023-03-26T02:26:18;56.03;;;8.25;;
72464;SDS011;60471;52.150;4.508;2023-03-26T02:28:45;65.15;;;9.65;;
72464;SDS011;60471;52.150;4.508;2023-03-26T02:31:11;61.53;;;8.43;;
72464;SDS011;60471;52.150;4.508;2023-03-26T02:33:38;64.00;;;10.52;;
72464;SDS011;60471;52.150;4.508;2023-03-26T02:36:05;76.97;;;9.60;;
72464;SDS011;60471;52.150;4.508;2023-03-26T02:38:33;79.43;;;10.15;;
72464;SDS011;60471;52.150;4.508;2023-03-26T02:41:02;68.35;;;9.90;;
72464;SDS011;60471;52.150;4.508;2023-03-26T02:43:30;76.30;;;9.88;;
72464;SDS011;60471;52.150;4.508;2023-03-26T02:45:56;64.72;;;9.35;;
72464;SDS011;60471;52.150;4.508;2023-03-26T02:48:22;74.93;;;9.90;;
72464;SDS011;60471;52.150;4.508;2023-03-26T02:50:48;72.97;;;9.88;;
72464;SDS011;60471;52.150;4.508;2023-03-26T02:53:19;60.35;;;9.32;;
72464;SDS011;60471;52.150;4.508;2023-03-26T02:55:46;53.53;;;9.65;;
72464;SDS011;60471;52.150;4.508;2023-03-26T02:58:13;66.72;;;10.70;;
72464;SDS011;60471;52.150;4.508;2023-03-26T03:00:45;62.80;;;9.95;;
72464;SDS011;60471;52.150;4.508;2023-03-26T03:03:12;78.18;;;12.15;;
72464;SDS011;60471;52.150;4.508;2023-03-26T03:05:38;79.85;;;12.45;;
72464;SDS011;60471;52.150;4.508;2023-03-26T03:08:08;78.75;;;12.23;;
72464;SDS011;60471;52.150;4.508;2023-03-26T03:10:35;83.78;;;11.80;;
72464;SDS011;60471;52.150;4.508;2023-03-26T03:13:02;84.22;;;14.25;;
72464;SDS011;60471;52.150;4.508;2023-03-26T03:15:32;99.32;;;14.55;;
72464;SDS011;60471;52.150;4.508;2023-03-26T03:17:59;78.18;;;12.95;;
72464;SDS011;60471;52.150;4.508;2023-03-26T03:20:25;83.97;;;12.85;;
72464;SDS011;60471;52.150;4.508;2023-03-26T03:22:52;76.53;;;12.98;;
72464;SDS011;60471;52.150;4.508;2023-03-26T03:25:18;95.40;;;13.90;;
72464;SDS011;60471;52.150;4.508;2023-03-26T03:27:46;86.88;;;12.82;;
72464;SDS011;60471;52.150;4.508;2023-03-26T03:30:13;76.28;;;13.50;;
72464;SDS011;60471;52.150;4.508;2023-03-26T03:32:39;102.38;;;15.80;;
72464;SDS011;60471;52.150;4.508;2023-03-26T03:35:05;88.60;;;13.10;;
72464;SDS011;60471;52.150;4.508;2023-03-26T03:37:32;79.45;;;14.00;;
72464;SDS011;60471;52.150;4.508;2023-03-26T03:39:58;85.88;;;15.15;;
72464;SDS011;60471;52.150;4.508;2023-03-26T03:42:24;89.93;;;12.40;;
72464;SDS011;60471;52.150;4.508;2023-03-26T03:44:52;84.63;;;14.20;;
72464;SDS011;60471;52.150;4.508;2023-03-26T03:47:18;95.35;;;17.15;;
72464;SDS011;60471;52.150;4.508;2023-03-26T03:49:45;92.65;;;15.45;;
72464;SDS011;60471;52.150;4.508;2023-03-26T03:52:11;91.55;;;14.80;;
72464;SDS011;60471;52.150;4.508;2023-03-26T03:54:37;76.40;;;14.02;;
72464;SDS011;60471;52.150;4.508;2023-03-26T03:57:03;80.03;;;14.25;;
72464;SDS011;60471;52.150;4.508;2023-03-26T03:59:29;85.60;;;13.73;;
72464;SDS011;60471;52.150;4.508;2023-03-26T04:01:56;79.22;;;13.65;;
72464;SDS011;60471;52.150;4.508;2023-03-26T04:04:22;72.07;;;13.50;;
72464;SDS011;60471;52.150;4.508;2023-03-26T04:06:49;71.38;;;13.20;;
72464;SDS011;60471;52.150;4.508;2023-03-26T04:09:17;71.03;;;16.08;;
72464;SDS011;60471;52.150;4.508;2023-03-26T04:11:44;68.57;;;15.98;;
72464;SDS011;60471;52.150;4.508;2023-03-26T04:14:10;85.72;;;17.80;;
72464;SDS011;60471;52.150;4.508;2023-03-26T04:16:36;73.95;;;17.33;;
72464;SDS011;60471;52.150;4.508;2023-03-26T04:19:02;66.45;;;16.25;;
72464;SDS011;60471;52.150;4.508;2023-03-26T04:21:28;73.05;;;16.60;;
72464;SDS011;60471;52.150;4.508;2023-03-26T04:23:55;56.95;;;14.20;;
72464;SDS011;60471;52.150;4.508;2023-03-26T04:26:21;68.35;;;14.50;;
72464;SDS011;60471;52.150;4.508;2023-03-26T04:28:48;62.50;;;14.00;;
72464;SDS011;60471;52.150;4.508;2023-03-26T04:31:21;61.03;;;14.93;;
72464;SDS011;60471;52.150;4.508;2023-03-26T04:33:54;69.03;;;13.73;;
72464;SDS011;60471;52.150;4.508;2023-03-26T04:36:38;49.45;;;13.18;;
72464;SDS011;60471;52.150;4.508;2023-03-26T04:39:08;61.67;;;13.85;;
72464;SDS011;60471;52.150;4.508;2023-03-26T04:41:38;65.55;;;14.75;;
72464;SDS011;60471;52.150;4.508;2023-03-26T04:44:04;66.05;;;13.70;;
72464;SDS011;60471;52.150;4.508;2023-03-26T04:46:30;66.47;;;14.35;;
72464;SDS011;60471;52.150;4.508;2023-03-26T04:48:58;75.53;;;14.73;;
72464;SDS011;60471;52.150;4.508;2023-03-26T04:51:26;69.05;;;14.20;;
72464;SDS011;60471;52.150;4.508;2023-03-26T04:54:03;67.03;;;15.60;;
72464;SDS011;60471;52.150;4.508;2023-03-26T04:59:33;65.65;;;13.48;;
72464;SDS011;60471;52.150;4.508;2023-03-26T05:02:02;69.10;;;13.63;;
72464;SDS011;60471;52.150;4.508;2023-03-26T05:04:30;63.83;;;13.82;;
72464;SDS011;60471;52.150;4.508;2023-03-26T05:07:01;69.03;;;13.98;;
72464;SDS011;60471;52.150;4.508;2023-03-26T05:09:27;65.95;;;14.35;;
72464;SDS011;60471;52.150;4.508;2023-03-26T05:11:54;75.30;;;15.27;;
72464;SDS011;60471;52.150;4.508;2023-03-26T05:14:21;62.25;;;15.43;;
72464;SDS011;60471;52.150;4.508;2023-03-26T05:16:47;54.42;;;13.30;;
72464;SDS011;60471;52.150;4.508;2023-03-26T05:19:15;74.30;;;14.10;;
72464;SDS011;60471;52.150;4.508;2023-03-26T05:21:41;62.42;;;14.85;;
72464;SDS011;60471;52.150;4.508;2023-03-26T05:24:07;49.38;;;14.20;;
72464;SDS011;60471;52.150;4.508;2023-03-26T05:26:33;63.83;;;14.52;;
72464;SDS011;60471;52.150;4.508;2023-03-26T05:28:59;62.63;;;14.43;;
72464;SDS011;60471;52.150;4.508;2023-03-26T05:31:27;63.15;;;13.68;;
72464;SDS011;60471;52.150;4.508;2023-03-26T05:33:57;64.28;;;13.85;;
72464;SDS011;60471;52.150;4.508;2023-03-26T05:36:28;56.78;;;12.95;;
72464;SDS011;60471;52.150;4.508;2023-03-26T05:38:54;54.95;;;13.02;;
72464;SDS011;60471;52.150;4.508;2023-03-26T05:41:20;59.15;;;15.07;;
72464;SDS011;60471;52.150;4.508;2023-03-26T05:43:46;66.82;;;13.80;;
72464;SDS011;60471;52.150;4.508;2023-03-26T05:46:13;78.65;;;14.30;;
72464;SDS011;60471;52.150;4.508;2023-03-26T05:48:40;64.05;;;13.38;;
72464;SDS011;60471;52.150;4.508;2023-03-26T05:51:06;63.08;;;13.95;;
72464;SDS011;60471;52.150;4.508;2023-03-26T05:53:33;57.78;;;13.60;;
72464;SDS011;60471;52.150;4.508;2023-03-26T05:55:59;59.35;;;13.15;;
72464;SDS011;60471;52.150;4.508;2023-03-26T05:58:27;73.70;;;14.55;;
72464;SDS011;60471;52.150;4.508;2023-03-26T06:01:00;66.93;;;15.25;;
72464;SDS011;60471;52.150;4.508;2023-03-26T06:03:31;67.00;;;15.25;;
72464;SDS011;60471;52.150;4.508;2023-03-26T06:05:58;82.35;;;15.85;;
72464;SDS011;60471;52.150;4.508;2023-03-26T06:08:24;88.30;;;15.95;;
72464;SDS011;60471;52.150;4.508;2023-03-26T06:10:56;62.85;;;15.57;;
72464;SDS011;60471;52.150;4.508;2023-03-26T06:13:28;66.40;;;19.90;;
72464;SDS011;60471;52.150;4.508;2023-03-26T06:15:54;154.90;;;70.97;;
72464;SDS011;60471;52.150;4.508;2023-03-26T06:18:23;131.27;;;47.35;;
72464;SDS011;60471;52.150;4.508;2023-03-26T06:20:51;70.68;;;17.77;;
72464;SDS011;60471;52.150;4.508;2023-03-26T06:23:18;59.00;;;15.20;;
72464;SDS011;60471;52.150;4.508;2023-03-26T06:25:44;65.63;;;14.13;;
72464;SDS011;60471;52.150;4.508;2023-03-26T06:28:11;52.30;;;13.27;;
72464;SDS011;60471;52.150;4.508;2023-03-26T06:30:37;67.30;;;15.35;;
72464;SDS011;60471;52.150;4.508;2023-03-26T06:33:04;58.80;;;14.05;;
72464;SDS011;60471;52.150;4.508;2023-03-26T06:35:31;67.80;;;14.10;;
72464;SDS011;60471;52.150;4.508;2023-03-26T06:37:57;107.07;;;45.10;;
72464;SDS011;60471;52.150;4.508;2023-03-26T06:40:24;155.63;;;69.45;;
72464;SDS011;60471;52.150;4.508;2023-03-26T06:42:50;69.32;;;23.45;;
72464;SDS011;60471;52.150;4.508;2023-03-26T06:45:17;81.43;;;28.88;;
72464;SDS011;60471;52.150;4.508;2023-03-26T06:47:43;99.85;;;41.95;;
72464;SDS011;60471;52.150;4.508;2023-03-26T06:50:10;73.63;;;23.38;;
72464;SDS011;60471;52.150;4.508;2023-03-26T06:52:36;66.72;;;17.05;;
72464;SDS011;60471;52.150;4.508;2023-03-26T06:55:03;67.90;;;17.70;;
72464;SDS011;60471;52.150;4.508;2023-03-26T06:57:31;58.47;;;16.77;;
72464;SDS011;60471;52.150;4.508;2023-03-26T06:59:57;61.65;;;16.67;;
72464;SDS011;60471;52.150;4.508;2023-03-26T07:02:23;53.47;;;16.15;;
72464;SDS011;60471;52.150;4.508;2023-03-26T07:04:50;49.80;;;14.93;;
72464;SDS011;60471;52.150;4.508;2023-03-26T07:07:16;63.90;;;15.82;;
72464;SDS011;60471;52.150;4.508;2023-03-26T07:09:45;54.40;;;15.68;;
72464;SDS011;60471;52.150;4.508;2023-03-26T07:12:13;66.75;;;16.98;;
72464;SDS011;60471;52.150;4.508;2023-03-26T07:14:39;66.65;;;17.38;;
72464;SDS011;60471;52.150;4.508;2023-03-26T07:17:06;65.05;;;16.95;;
72464;SDS011;60471;52.150;4.508;2023-03-26T07:19:33;62.03;;;18.23;;
72464;SDS011;60471;52.150;4.508;2023-03-26T07:21:59;60.85;;;18.30;;
72464;SDS011;60471;52.150;4.508;2023-03-26T07:24:26;64.22;;;17.65;;
72464;SDS011;60471;52.150;4.508;2023-03-26T07:34:59;67.90;;;19.20;;
72464;SDS011;60471;52.150;4.508;2023-03-26T07:37:47;72.30;;;19.40;;
72464;SDS011;60471;52.150;4.508;2023-03-26T07:46:26;59.80;;;19.17;;
72464;SDS011;60471;52.150;4.508;2023-03-26T07:48:56;118.95;;;49.53;;
72464;SDS011;60471;52.150;4.508;2023-03-26T07:51:26;94.10;;;37.92;;
72464;SDS011;60471;52.150;4.508;2023-03-26T07:53:53;70.68;;;21.23;;
72464;SDS011;60471;52.150;4.508;2023-03-26T07:56:22;71.97;;;20.60;;
72464;SDS011;60471;52.150;4.508;2023-03-26T08:10:22;61.92;;;21.85;;
72464;SDS011;60471;52.150;4.508;2023-03-26T08:12:58;52.72;;;20.02;;
72464;SDS011;60471;52.150;4.508;2023-03-26T08:21:10;48.17;;;18.42;;
72464;SDS011;60471;52.150;4.508;2023-03-26T08:24:32;47.92;;;17.23;;
72464;SDS011;60471;52.150;4.508;2023-03-26T08:26:44;86.00;;;45.63;;
72464;SDS011;60471;52.150;4.508;2023-03-26T08:32:13;35.47;;;13.18;;
72464;SDS011;60471;52.150;4.508;2023-03-26T08:34:44;33.83;;;11.60;;
72464;SDS011;60471;52.150;4.508;2023-03-26T08:37:11;31.13;;;13.15;;
72464;SDS011;60471;52.150;4.508;2023-03-26T08:39:38;38.28;;;13.43;;
72464;SDS011;60471;52.150;4.508;2023-03-26T08:44:50;27.75;;;11.93;;
72464;SDS011;60471;52.150;4.508;2023-03-26T09:35:20;27.48;;;9.52;;
72464;SDS011;60471;52.150;4.508;2023-03-26T09:41:28;24.58;;;7.65;;
72464;SDS011;60471;52.150;4.508;2023-03-26T09:47:08;46.38;;;16.02;;
72464;SDS011;60471;52.150;4.508;2023-03-26T09:55:43;23.40;;;5.30;;
72464;SDS011;60471;52.150;4.508;2023-03-26T10:12:41;19.75;;;4.88;;
72464;SDS011;60471;52.150;4.508;2023-03-26T10:18:13;86.00;;;41.97;;
72464;SDS011;60471;52.150;4.508;2023-03-26T10:31:44;20.40;;;4.15;;
72464;SDS011;60471;52.150;4.508;2023-03-26T10:34:29;44.88;;;14.35;;
72464;SDS011;60471;52.150;4.508;2023-03-26T10:40:47;23.00;;;4.50;;
72464;SDS011;60471;52.150;4.508;2023-03-26T10:44:03;24.92;;;5.10;;
72464;SDS011;60471;52.150;4.508;2023-03-26T10:47:18;32.40;;;5.03;;
72464;SDS011;60471;52.150;4.508;2023-03-26T10:52:52;41.47;;;8.05;;
72464;SDS011;60471;52.150;4.508;2023-03-26T10:55:33;30.60;;;4.57;;
72464;SDS011;60471;52.150;4.508;2023-03-26T10:58:16;25.77;;;4.97;;
72464;SDS011;60471;52.150;4.508;2023-03-26T11:03:47;20.67;;;5.03;;
72464;SDS011;60471;52.150;4.508;2023-03-26T11:09:13;28.85;;;4.90;;
72464;SDS011;60471;52.150;4.508;2023-03-26T11:11:53;25.40;;;4.60;;
72464;SDS011;60471;52.150;4.508;2023-03-26T11:17:38;24.13;;;4.85;;
72464;SDS011;60471;52.150;4.508;2023-03-26T11:20:31;23.52;;;5.05;;
72464;SDS011;60471;52.150;4.508;2023-03-26T11:28:36;25.15;;;5.05;;
72464;SDS011;60471;52.150;4.508;2023-03-26T11:34:02;23.27;;;4.93;;
72464;SDS011;60471;52.150;4.508;2023-03-26T11:36:42;20.30;;;4.28;;
72464;SDS011;60471;52.150;4.508;2023-03-26T11:39:25;23.95;;;4.47;;
72464;SDS011;60471;52.150;4.508;2023-03-26T11:44:36;19.27;;;3.65;;
72464;SDS011;60471;52.150;4.508;2023-03-26T11:47:12;18.83;;;3.47;;
72464;SDS011;60471;52.150;4.508;2023-03-26T11:49:46;20.80;;;3.65;;
72464;SDS011;60471;52.150;4.508;2023-03-26T11:52:16;22.08;;;3.35;;
72464;SDS011;60471;52.150;4.508;2023-03-26T11:54:42;23.17;;;4.25;;
72464;SDS011;60471;52.150;4.508;2023-03-26T11:57:14;21.58;;;3.92;;
72464;SDS011;60471;52.150;4.508;2023-03-26T12:00:04;22.35;;;4.65;;
72464;SDS011;60471;52.150;4.508;2023-03-26T12:02:43;19.77;;;3.67;;
72464;SDS011;60471;52.150;4.508;2023-03-26T12:05:13;20.42;;;3.75;;
72464;SDS011;60471;52.150;4.508;2023-03-26T12:07:52;19.02;;;3.72;;
72464;SDS011;60471;52.150;4.508;2023-03-26T12:10:28;18.93;;;3.53;;
72464;SDS011;60471;52.150;4.508;2023-03-26T12:13:12;24.85;;;3.20;;
72464;SDS011;60471;52.150;4.508;2023-03-26T12:15:46;17.02;;;3.22;;
72464;SDS011;60471;52.150;4.508;2023-03-26T12:18:22;20.75;;;2.95;;
72464;SDS011;60471;52.150;4.508;2023-03-26T12:23:57;17.35;;;3.20;;
72464;SDS011;60471;52.150;4.508;2023-03-26T12:29:03;19.88;;;3.70;;
72464;SDS011;60471;52.150;4.508;2023-03-26T12:31:41;20.05;;;3.08;;
72464;SDS011;60471;52.150;4.508;2023-03-26T12:34:17;23.92;;;3.95;;
72464;SDS011;60471;52.150;4.508;2023-03-26T12:36:51;16.83;;;2.75;;
72464;SDS011;60471;52.150;4.508;2023-03-26T12:41:57;18.50;;;2.97;;
72464;SDS011;60471;52.150;4.508;2023-03-26T12:47:33;15.93;;;3.15;;
72464;SDS011;60471;52.150;4.508;2023-03-26T12:49:57;15.25;;;3.55;;
72464;SDS011;60471;52.150;4.508;2023-03-26T12:55:32;18.17;;;3.08;;
72464;SDS011;60471;52.150;4.508;2023-03-26T12:58:21;17.70;;;3.33;;
72464;SDS011;60471;52.150;4.508;2023-03-26T13:01:01;17.63;;;3.50;;
72464;SDS011;60471;52.150;4.508;2023-03-26T13:06:24;26.35;;;8.35;;
72464;SDS011;60471;52.150;4.508;2023-03-26T13:15:47;15.07;;;2.60;;
72464;SDS011;60471;52.150;4.508;2023-03-26T13:21:39;15.05;;;3.03;;
72464;SDS011;60471;52.150;4.508;2023-03-26T13:24:28;12.27;;;2.60;;
72464;SDS011;60471;52.150;4.508;2023-03-26T13:30:18;13.55;;;2.72;;
72464;SDS011;60471;52.150;4.508;2023-03-26T13:35:39;15.82;;;2.92;;
72464;SDS011;60471;52.150;4.508;2023-03-26T13:39:00;18.58;;;2.70;;
72464;SDS011;60471;52.150;4.508;2023-03-26T13:44:22;11.88;;;1.92;;
72464;SDS011;60471;52.150;4.508;2023-03-26T13:47:15;11.82;;;2.22;;
72464;SDS011;60471;52.150;4.508;2023-03-26T13:49:56;14.70;;;2.58;;
72464;SDS011;60471;52.150;4.508;2023-03-26T13:57:53;15.88;;;2.30;;
72464;SDS011;60471;52.150;4.508;2023-03-26T14:00:35;21.77;;;2.83;;
72464;SDS011;60471;52.150;4.508;2023-03-26T14:06:39;10.20;;;1.92;;
72464;SDS011;60471;52.150;4.508;2023-03-26T14:09:35;11.93;;;1.80;;
72464;SDS011;60471;52.150;4.508;2023-03-26T14:24:33;16.10;;;4.13;;
72464;SDS011;60471;52.150;4.508;2023-03-26T14:27:36;18.42;;;4.60;;
72464;SDS011;60471;52.150;4.508;2023-03-26T14:42:22;16.50;;;2.17;;
72464;SDS011;60471;52.150;4.508;2023-03-26T14:53:37;10.20;;;2.20;;
72464;SDS011;60471;52.150;4.508;2023-03-26T14:56:48;13.15;;;2.53;;
72464;SDS011;60471;52.150;4.508;2023-03-26T15:02:11;16.63;;;2.53;;
72464;SDS011;60471;52.150;4.508;2023-03-26T15:21:28;14.98;;;2.28;;
72464;SDS011;60471;52.150;4.508;2023-03-26T15:24:25;13.02;;;2.53;;
72464;SDS011;60471;52.150;4.508;2023-03-26T15:33:45;12.05;;;1.90;;
72464;SDS011;60471;52.150;4.508;2023-03-26T15:36:51;38.90;;;17.73;;
72464;SDS011;60471;52.150;4.508;2023-03-26T15:54:56;15.52;;;2.70;;
72464;SDS011;60471;52.150;4.508;2023-03-26T16:00:26;15.73;;;3.03;;
72464;SDS011;60471;52.150;4.508;2023-03-26T16:11:46;13.77;;;2.13;;
72464;SDS011;60471;52.150;4.508;2023-03-26T16:17:01;16.05;;;4.45;;
72464;SDS011;60471;52.150;4.508;2023-03-26T16:22:36;11.57;;;2.35;;
72464;SDS011;60471;52.150;4.508;2023-03-26T16:28:15;13.32;;;2.55;;
72464;SDS011;60471;52.150;4.508;2023-03-26T16:31:39;18.50;;;2.63;;
72464;SDS011;60471;52.150;4.508;2023-03-26T16:33:50;13.52;;;4.38;;
72464;SDS011;60471;52.150;4.508;2023-03-26T16:39:11;15.77;;;2.78;;
72464;SDS011;60471;52.150;4.508;2023-03-26T16:44:24;13.18;;;2.42;;
72464;SDS011;60471;52.150;4.508;2023-03-26T16:50:20;13.15;;;2.83;;
72464;SDS011;60471;52.150;4.508;2023-03-26T16:58:50;12.98;;;3.20;;
72464;SDS011;60471;52.150;4.508;2023-03-26T17:01:34;49.97;;;22.80;;
72464;SDS011;60471;52.150;4.508;2023-03-26T17:04:19;14.60;;;2.40;;
72464;SDS011;60471;52.150;4.508;2023-03-26T17:21:14;12.20;;;2.53;;
72464;SDS011;60471;52.150;4.508;2023-03-26T17:26:42;13.68;;;2.35;;
72464;SDS011;60471;52.150;4.508;2023-03-26T17:35:42;11.23;;;2.20;;
72464;SDS011;60471;52.150;4.508;2023-03-26T17:40:48;17.92;;;3.38;;
72464;SDS011;60471;52.150;4.508;2023-03-26T17:46:21;15.40;;;2.70;;
72464;SDS011;60471;52.150;4.508;2023-03-26T17:54:30;15.38;;;2.80;;
72464;SDS011;60471;52.150;4.508;2023-03-26T17:57:09;14.98;;;2.95;;
72464;SDS011;60471;52.150;4.508;2023-03-26T18:00:06;16.15;;;2.78;;
72464;SDS011;60471;52.150;4.508;2023-03-26T18:03:31;15.68;;;2.78;;
72464;SDS011;60471;52.150;4.508;2023-03-26T18:24:05;15.55;;;2.60;;
72464;SDS011;60471;52.150;4.508;2023-03-26T18:26:40;15.32;;;2.78;;
72464;SDS011;60471;52.150;4.508;2023-03-26T18:29:12;17.38;;;2.60;;
72464;SDS011;60471;52.150;4.508;2023-03-26T18:34:37;26.08;;;3.97;;
72464;SDS011;60471;52.150;4.508;2023-03-26T18:48:02;17.85;;;3.15;;
72464;SDS011;60471;52.150;4.508;2023-03-26T18:50:39;15.30;;;3.28;;
72464;SDS011;60471;52.150;4.508;2023-03-26T18:53:16;13.93;;;2.80;;
72464;SDS011;60471;52.150;4.508;2023-03-26T18:55:48;15.43;;;2.75;;
72464;SDS011;60471;52.150;4.508;2023-03-26T19:01:04;21.20;;;3.15;;
72464;SDS011;60471;52.150;4.508;2023-03-26T19:03:35;17.73;;;2.75;;
72464;SDS011;60471;52.150;4.508;2023-03-26T19:06:08;21.13;;;3.03;;
72464;SDS011;60471;52.150;4.508;2023-03-26T19:08:40;16.50;;;3.00;;
72464;SDS011;60471;52.150;4.508;2023-03-26T19:11:10;18.95;;;2.63;;
72464;SDS011;60471;52.150;4.508;2023-03-26T19:13:41;13.40;;;2.65;;
72464;SDS011;60471;52.150;4.508;2023-03-26T19:16:11;14.82;;;2.97;;
72464;SDS011;60471;52.150;4.508;2023-03-26T19:18:49;16.70;;;2.90;;
72464;SDS011;60471;52.150;4.508;2023-03-26T19:21:17;13.30;;;2.72;;
72464;SDS011;60471;52.150;4.508;2023-03-26T19:23:47;16.65;;;2.47;;
72464;SDS011;60471;52.150;4.508;2023-03-26T19:26:17;15.77;;;3.15;;
72464;SDS011;60471;52.150;4.508;2023-03-26T19:28:47;14.85;;;2.58;;
72464;SDS011;60471;52.150;4.508;2023-03-26T19:31:22;14.27;;;2.90;;
72464;SDS011;60471;52.150;4.508;2023-03-26T19:39:24;17.27;;;3.08;;
72464;SDS011;60471;52.150;4.508;2023-03-26T19:42:04;15.35;;;2.28;;
72464;SDS011;60471;52.150;4.508;2023-03-26T19:44:32;29.58;;;12.02;;
72464;SDS011;60471;52.150;4.508;2023-03-26T19:47:07;14.00;;;3.50;;
72464;SDS011;60471;52.150;4.508;2023-03-26T19:52:18;20.45;;;5.05;;
72464;SDS011;60471;52.150;4.508;2023-03-26T19:57:48;16.63;;;2.72;;
72464;SDS011;60471;52.150;4.508;2023-03-26T20:00:16;14.25;;;2.60;;
72464;SDS011;60471;52.150;4.508;2023-03-26T20:02:44;14.65;;;2.58;;
72464;SDS011;60471;52.150;4.508;2023-03-26T20:05:17;16.20;;;2.30;;
72464;SDS011;60471;52.150;4.508;2023-03-26T20:07:48;19.83;;;3.13;;
72464;SDS011;60471;52.150;4.508;2023-03-26T20:10:15;12.40;;;2.47;;
72464;SDS011;60471;52.150;4.508;2023-03-26T20:12:41;17.85;;;2.90;;
72464;SDS011;60471;52.150;4.508;2023-03-26T20:15:15;14.27;;;2.10;;
72464;SDS011;60471;52.150;4.508;2023-03-26T20:17:48;13.35;;;2.35;;
72464;SDS011;60471;52.150;4.508;2023-03-26T20:20:19;18.85;;;2.60;;
72464;SDS011;60471;52.150;4.508;2023-03-26T20:22:50;23.10;;;7.43;;
72464;SDS011;60471;52.150;4.508;2023-03-26T20:25:28;13.25;;;3.25;;
72464;SDS011;60471;52.150;4.508;2023-03-26T20:27:58;15.35;;;2.67;;
72464;SDS011;60471;52.150;4.508;2023-03-26T20:30:25;13.45;;;2.58;;
72464;SDS011;60471;52.150;4.508;2023-03-26T20:32:53;12.25;;;2.17;;
72464;SDS011;60471;52.150;4.508;2023-03-26T20:35:21;12.77;;;2.55;;
72464;SDS011;60471;52.150;4.508;2023-03-26T20:37:50;18.75;;;4.63;;
72464;SDS011;60471;52.150;4.508;2023-03-26T20:40:17;16.45;;;2.30;;
72464;SDS011;60471;52.150;4.508;2023-03-26T20:42:45;13.10;;;2.30;;
72464;SDS011;60471;52.150;4.508;2023-03-26T20:47:49;16.55;;;2.67;;
72464;SDS011;60471;52.150;4.508;2023-03-26T20:50:16;14.98;;;2.13;;
72464;SDS011;60471;52.150;4.508;2023-03-26T20:52:47;14.68;;;2.65;;
72464;SDS011;60471;52.150;4.508;2023-03-26T20:55:16;12.98;;;2.53;;
72464;SDS011;60471;52.150;4.508;2023-03-26T21:00:16;12.48;;;2.13;;
72464;SDS011;60471;52.150;4.508;2023-03-26T21:02:47;80.10;;;36.55;;
72464;SDS011;60471;52.150;4.508;2023-03-26T21:05:19;11.35;;;1.92;;
72464;SDS011;60471;52.150;4.508;2023-03-26T21:07:50;9.27;;;1.50;;
72464;SDS011;60471;52.150;4.508;2023-03-26T21:10:18;12.88;;;1.70;;
72464;SDS011;60471;52.150;4.508;2023-03-26T21:13:05;10.50;;;1.58;;
72464;SDS011;60471;52.150;4.508;2023-03-26T21:15:38;7.30;;;2.03;;
72464;SDS011;60471;52.150;4.508;2023-03-26T21:18:05;8.18;;;1.50;;
72464;SDS011;60471;52.150;4.508;2023-03-26T21:20:32;9.40;;;1.88;;
72464;SDS011;60471;52.150;4.508;2023-03-26T21:30:59;12.90;;;1.75;;
72464;SDS011;60471;52.150;4.508;2023-03-26T21:33:26;11.57;;;1.70;;
72464;SDS011;60471;52.150;4.508;2023-03-26T21:35:53;15.43;;;1.95;;
72464;SDS011;60471;52.150;4.508;2023-03-26T21:38:22;11.15;;;1.95;;
72464;SDS011;60471;52.150;4.508;2023-03-26T21:40:50;15.32;;;2.15;;
72464;SDS011;60471;52.150;4.508;2023-03-26T21:43:20;13.63;;;2.53;;
72464;SDS011;60471;52.150;4.508;2023-03-26T21:45:47;11.02;;;1.92;;
72464;SDS011;60471;52.150;4.508;2023-03-26T21:48:15;13.25;;;2.30;;
72464;SDS011;60471;52.150;4.508;2023-03-26T21:50:42;14.50;;;2.25;;
72464;SDS011;60471;52.150;4.508;2023-03-26T21:53:10;11.38;;;2.30;;
72464;SDS011;60471;52.150;4.508;2023-03-26T21:55:43;14.68;;;2.60;;
72464;SDS011;60471;52.150;4.508;2023-03-26T21:58:27;14.93;;;2.20;;
72464;SDS011;60471;52.150;4.508;2023-03-26T22:01:16;11.77;;;1.98;;
72464;SDS011;60471;52.150;4.508;2023-03-26T22:07:12;15.05;;;2.58;;